sensor_id;sensor_type;location;lat;lon;timestamp;temperature;humidity
21559;DHT22;10940;48.890;8.240;2024-02-28T00:02:08;7.30;99.90
21559;DHT22;10940;48.890;8.240;2024-02-28T00:04:34;7.20;99.90
21559;DHT22;10940;48.890;8.240;2024-02-28T00:06:59;7.20;99.90
21559;DHT22;10940;48.890;8.240;2024-02-28T00:09:25;7.10;99.90
21559;DHT22;10940;48.890;8.240;2024-02-28T00:11:51;7.00;99.90
21559;DHT22;10940;48.890;8.240;2024-02-28T00:14:16;7.00;99.90
21559;DHT22;10940;48.890;8.240;2024-02-28T00:16:46;7.00;99.90
21559;DHT22;10940;48.890;8.240;2024-02-28T00:19:12;6.90;99.90
21559;DHT22;10940;48.890;8.240;2024-02-28T00:21:38;6.80;99.90
21559;DHT22;10940;48.890;8.240;2024-02-28T00:24:08;6.80;99.90
21559;DHT22;10940;48.890;8.240;2024-02-28T00:26:34;6.70;99.90
21559;DHT22;10940;48.890;8.240;2024-02-28T00:28:59;6.70;99.90
21559;DHT22;10940;48.890;8.240;2024-02-28T00:31:25;6.70;99.90
21559;DHT22;10940;48.890;8.240;2024-02-28T00:33:51;6.60;99.90
21559;DHT22;10940;48.890;8.240;2024-02-28T00:36:17;6.60;99.90
21559;DHT22;10940;48.890;8.240;2024-02-28T00:38:43;6.50;99.90
21559;DHT22;10940;48.890;8.240;2024-02-28T00:41:09;6.50;99.90
21559;DHT22;10940;48.890;8.240;2024-02-28T00:43:35;6.50;99.90
21559;DHT22;10940;48.890;8.240;2024-02-28T00:46:00;6.50;99.90
21559;DHT22;10940;48.890;8.240;2024-02-28T00:48:26;6.40;99.90
21559;DHT22;10940;48.890;8.240;2024-02-28T00:50:55;6.50;99.90
21559;DHT22;10940;48.890;8.240;2024-02-28T00:53:20;6.40;99.90
21559;DHT22;10940;48.890;8.240;2024-02-28T00:55:46;6.30;99.90
21559;DHT22;10940;48.890;8.240;2024-02-28T00:58:12;6.40;99.90
21559;DHT22;10940;48.890;8.240;2024-02-28T01:00:37;6.30;99.90
21559;DHT22;10940;48.890;8.240;2024-02-28T01:03:03;6.30;99.90
21559;DHT22;10940;48.890;8.240;2024-02-28T01:05:30;6.30;99.90
21559;DHT22;10940;48.890;8.240;2024-02-28T01:07:55;6.40;99.90
21559;DHT22;10940;48.890;8.240;2024-02-28T01:10:21;6.40;99.90
21559;DHT22;10940;48.890;8.240;2024-02-28T01:12:46;6.30;99.90
21559;DHT22;10940;48.890;8.240;2024-02-28T01:15:12;6.30;99.90
21559;DHT22;10940;48.890;8.240;2024-02-28T01:17:38;6.40;99.90
21559;DHT22;10940;48.890;8.240;2024-02-28T01:20:05;6.30;99.90
21559;DHT22;10940;48.890;8.240;2024-02-28T01:22:32;6.30;99.90
21559;DHT22;10940;48.890;8.240;2024-02-28T01:24:58;6.20;99.90
21559;DHT22;10940;48.890;8.240;2024-02-28T01:27:23;6.20;99.90
21559;DHT22;10940;48.890;8.240;2024-02-28T01:29:49;6.10;99.90
21559;DHT22;10940;48.890;8.240;2024-02-28T01:32:15;6.10;99.90
21559;DHT22;10940;48.890;8.240;2024-02-28T01:34:40;6.00;99.90
21559;DHT22;10940;48.890;8.240;2024-02-28T01:37:06;6.00;99.90
21559;DHT22;10940;48.890;8.240;2024-02-28T01:39:31;5.90;99.90
21559;DHT22;10940;48.890;8.240;2024-02-28T01:41:57;5.80;99.90
21559;DHT22;10940;48.890;8.240;2024-02-28T01:44:23;5.70;99.90
21559;DHT22;10940;48.890;8.240;2024-02-28T01:46:48;5.60;99.90
21559;DHT22;10940;48.890;8.240;2024-02-28T01:49:15;5.50;99.90
21559;DHT22;10940;48.890;8.240;2024-02-28T01:51:41;5.50;99.90
21559;DHT22;10940;48.890;8.240;2024-02-28T01:54:07;5.40;99.90
21559;DHT22;10940;48.890;8.240;2024-02-28T01:56:34;5.40;99.90
21559;DHT22;10940;48.890;8.240;2024-02-28T01:59:00;5.40;99.90
21559;DHT22;10940;48.890;8.240;2024-02-28T02:01:27;5.40;99.90
21559;DHT22;10940;48.890;8.240;2024-02-28T02:03:54;5.30;99.90
21559;DHT22;10940;48.890;8.240;2024-02-28T02:06:20;5.30;99.90
21559;DHT22;10940;48.890;8.240;2024-02-28T02:08:46;5.20;99.90
21559;DHT22;10940;48.890;8.240;2024-02-28T02:11:12;5.20;99.90
21559;DHT22;10940;48.890;8.240;2024-02-28T02:13:49;5.10;99.90
21559;DHT22;10940;48.890;8.240;2024-02-28T02:16:15;5.10;99.90
21559;DHT22;10940;48.890;8.240;2024-02-28T02:18:41;5.00;99.90
21559;DHT22;10940;48.890;8.240;2024-02-28T02:21:07;5.00;99.90
21559;DHT22;10940;48.890;8.240;2024-02-28T02:23:34;4.90;99.90
21559;DHT22;10940;48.890;8.240;2024-02-28T02:26:00;4.80;99.90
21559;DHT22;10940;48.890;8.240;2024-02-28T02:28:26;4.70;99.90
21559;DHT22;10940;48.890;8.240;2024-02-28T02:30:52;4.70;99.90
21559;DHT22;10940;48.890;8.240;2024-02-28T02:33:17;4.60;99.90
21559;DHT22;10940;48.890;8.240;2024-02-28T02:35:43;4.60;99.90
21559;DHT22;10940;48.890;8.240;2024-02-28T02:38:09;4.60;99.90
21559;DHT22;10940;48.890;8.240;2024-02-28T02:40:35;4.60;99.90
21559;DHT22;10940;48.890;8.240;2024-02-28T02:43:00;4.60;99.90
21559;DHT22;10940;48.890;8.240;2024-02-28T02:45:26;4.50;99.90
21559;DHT22;10940;48.890;8.240;2024-02-28T02:47:51;4.50;99.90
21559;DHT22;10940;48.890;8.240;2024-02-28T02:50:17;4.50;99.90
21559;DHT22;10940;48.890;8.240;2024-02-28T02:52:42;4.50;99.90
21559;DHT22;10940;48.890;8.240;2024-02-28T02:55:08;4.50;99.90
21559;DHT22;10940;48.890;8.240;2024-02-28T02:57:35;4.50;99.90
21559;DHT22;10940;48.890;8.240;2024-02-28T03:00:01;4.40;99.90
21559;DHT22;10940;48.890;8.240;2024-02-28T03:02:26;4.40;99.90
21559;DHT22;10940;48.890;8.240;2024-02-28T03:04:52;4.40;99.90
21559;DHT22;10940;48.890;8.240;2024-02-28T03:07:17;4.40;99.90
21559;DHT22;10940;48.890;8.240;2024-02-28T03:09:43;4.50;99.90
21559;DHT22;10940;48.890;8.240;2024-02-28T03:12:09;4.50;99.90
21559;DHT22;10940;48.890;8.240;2024-02-28T03:14:37;4.50;99.90
21559;DHT22;10940;48.890;8.240;2024-02-28T03:17:03;4.60;99.90
21559;DHT22;10940;48.890;8.240;2024-02-28T03:19:28;4.60;99.90
21559;DHT22;10940;48.890;8.240;2024-02-28T03:21:54;4.60;99.90
21559;DHT22;10940;48.890;8.240;2024-02-28T03:24:20;4.60;99.90
21559;DHT22;10940;48.890;8.240;2024-02-28T03:26:45;4.60;99.90
21559;DHT22;10940;48.890;8.240;2024-02-28T03:29:12;4.60;99.90
21559;DHT22;10940;48.890;8.240;2024-02-28T03:31:37;4.60;99.90
21559;DHT22;10940;48.890;8.240;2024-02-28T03:34:03;4.60;99.90
21559;DHT22;10940;48.890;8.240;2024-02-28T03:36:29;4.50;99.90
21559;DHT22;10940;48.890;8.240;2024-02-28T03:38:54;4.50;99.90
21559;DHT22;10940;48.890;8.240;2024-02-28T03:41:20;4.50;99.90
21559;DHT22;10940;48.890;8.240;2024-02-28T03:43:45;4.50;99.90
21559;DHT22;10940;48.890;8.240;2024-02-28T03:46:11;4.40;99.90
21559;DHT22;10940;48.890;8.240;2024-02-28T03:48:37;4.40;99.90
21559;DHT22;10940;48.890;8.240;2024-02-28T03:51:02;4.30;99.90
21559;DHT22;10940;48.890;8.240;2024-02-28T03:53:28;4.30;99.90
21559;DHT22;10940;48.890;8.240;2024-02-28T03:55:53;4.20;99.90
21559;DHT22;10940;48.890;8.240;2024-02-28T03:58:19;4.20;99.90
21559;DHT22;10940;48.890;8.240;2024-02-28T04:00:44;4.10;99.90
21559;DHT22;10940;48.890;8.240;2024-02-28T04:03:11;4.10;99.90
21559;DHT22;10940;48.890;8.240;2024-02-28T04:05:36;4.10;99.90
21559;DHT22;10940;48.890;8.240;2024-02-28T04:08:02;4.10;99.90
21559;DHT22;10940;48.890;8.240;2024-02-28T04:10:28;4.10;99.90
21559;DHT22;10940;48.890;8.240;2024-02-28T04:12:53;4.00;99.90
21559;DHT22;10940;48.890;8.240;2024-02-28T04:15:19;4.00;99.90
21559;DHT22;10940;48.890;8.240;2024-02-28T04:17:44;4.00;99.90
21559;DHT22;10940;48.890;8.240;2024-02-28T04:20:13;4.00;99.90
21559;DHT22;10940;48.890;8.240;2024-02-28T04:22:39;4.00;99.90
21559;DHT22;10940;48.890;8.240;2024-02-28T04:25:07;4.00;99.90
21559;DHT22;10940;48.890;8.240;2024-02-28T04:27:33;4.00;99.90
21559;DHT22;10940;48.890;8.240;2024-02-28T04:29:59;4.00;99.90
21559;DHT22;10940;48.890;8.240;2024-02-28T04:32:24;4.00;99.90
21559;DHT22;10940;48.890;8.240;2024-02-28T04:34:50;4.00;99.90
21559;DHT22;10940;48.890;8.240;2024-02-28T04:37:15;4.10;99.90
21559;DHT22;10940;48.890;8.240;2024-02-28T04:39:41;4.10;99.90
21559;DHT22;10940;48.890;8.240;2024-02-28T04:42:06;4.20;99.90
21559;DHT22;10940;48.890;8.240;2024-02-28T04:44:33;4.20;99.90
21559;DHT22;10940;48.890;8.240;2024-02-28T04:46:58;4.20;99.90
21559;DHT22;10940;48.890;8.240;2024-02-28T04:49:24;4.30;99.90
21559;DHT22;10940;48.890;8.240;2024-02-28T04:51:49;4.30;99.90
21559;DHT22;10940;48.890;8.240;2024-02-28T04:54:15;4.30;99.90
21559;DHT22;10940;48.890;8.240;2024-02-28T04:56:41;4.30;99.90
21559;DHT22;10940;48.890;8.240;2024-02-28T04:59:08;4.30;99.90
21559;DHT22;10940;48.890;8.240;2024-02-28T05:01:34;4.30;99.90
21559;DHT22;10940;48.890;8.240;2024-02-28T05:04:00;4.40;99.90
21559;DHT22;10940;48.890;8.240;2024-02-28T05:06:27;4.30;99.90
21559;DHT22;10940;48.890;8.240;2024-02-28T05:08:53;4.40;99.90
21559;DHT22;10940;48.890;8.240;2024-02-28T05:11:18;4.40;99.90
21559;DHT22;10940;48.890;8.240;2024-02-28T05:13:44;4.40;99.90
21559;DHT22;10940;48.890;8.240;2024-02-28T05:16:13;4.50;99.90
21559;DHT22;10940;48.890;8.240;2024-02-28T05:18:40;4.50;99.90
21559;DHT22;10940;48.890;8.240;2024-02-28T05:21:05;4.50;99.90
21559;DHT22;10940;48.890;8.240;2024-02-28T05:23:31;4.50;99.90
21559;DHT22;10940;48.890;8.240;2024-02-28T05:25:57;4.50;99.90
21559;DHT22;10940;48.890;8.240;2024-02-28T05:28:23;4.50;99.90
21559;DHT22;10940;48.890;8.240;2024-02-28T05:30:49;4.50;99.90
21559;DHT22;10940;48.890;8.240;2024-02-28T05:33:15;4.50;99.90
21559;DHT22;10940;48.890;8.240;2024-02-28T05:35:42;4.60;99.90
21559;DHT22;10940;48.890;8.240;2024-02-28T05:38:08;4.60;99.90
21559;DHT22;10940;48.890;8.240;2024-02-28T05:40:33;4.60;99.90
21559;DHT22;10940;48.890;8.240;2024-02-28T05:42:59;4.60;99.90
21559;DHT22;10940;48.890;8.240;2024-02-28T05:45:27;4.60;99.90
21559;DHT22;10940;48.890;8.240;2024-02-28T05:47:52;4.60;99.90
21559;DHT22;10940;48.890;8.240;2024-02-28T05:50:18;4.60;99.90
21559;DHT22;10940;48.890;8.240;2024-02-28T05:52:44;4.60;99.90
21559;DHT22;10940;48.890;8.240;2024-02-28T05:55:09;4.60;99.90
21559;DHT22;10940;48.890;8.240;2024-02-28T05:57:35;4.70;99.90
21559;DHT22;10940;48.890;8.240;2024-02-28T06:00:00;4.70;99.90
21559;DHT22;10940;48.890;8.240;2024-02-28T06:02:30;4.70;99.90
21559;DHT22;10940;48.890;8.240;2024-02-28T06:04:55;4.70;99.90
21559;DHT22;10940;48.890;8.240;2024-02-28T06:07:21;4.70;99.90
21559;DHT22;10940;48.890;8.240;2024-02-28T06:09:47;4.80;99.90
21559;DHT22;10940;48.890;8.240;2024-02-28T06:12:12;4.80;99.90
21559;DHT22;10940;48.890;8.240;2024-02-28T06:14:38;4.80;99.90
21559;DHT22;10940;48.890;8.240;2024-02-28T06:17:04;4.80;99.90
21559;DHT22;10940;48.890;8.240;2024-02-28T06:19:29;4.70;99.90
21559;DHT22;10940;48.890;8.240;2024-02-28T06:21:55;4.80;99.90
21559;DHT22;10940;48.890;8.240;2024-02-28T06:24:20;4.70;99.90
21559;DHT22;10940;48.890;8.240;2024-02-28T06:26:46;4.60;99.90
21559;DHT22;10940;48.890;8.240;2024-02-28T06:29:11;4.60;99.90
21559;DHT22;10940;48.890;8.240;2024-02-28T06:31:37;4.60;99.90
21559;DHT22;10940;48.890;8.240;2024-02-28T06:34:03;4.50;99.90
21559;DHT22;10940;48.890;8.240;2024-02-28T06:36:29;4.50;99.90
21559;DHT22;10940;48.890;8.240;2024-02-28T06:38:55;4.50;99.90
21559;DHT22;10940;48.890;8.240;2024-02-28T06:41:20;4.50;99.90
21559;DHT22;10940;48.890;8.240;2024-02-28T06:43:46;4.50;99.90
21559;DHT22;10940;48.890;8.240;2024-02-28T06:46:11;4.50;99.90
21559;DHT22;10940;48.890;8.240;2024-02-28T06:48:37;4.50;99.90
21559;DHT22;10940;48.890;8.240;2024-02-28T06:51:03;4.50;99.90
21559;DHT22;10940;48.890;8.240;2024-02-28T06:53:29;4.50;99.90
21559;DHT22;10940;48.890;8.240;2024-02-28T06:55:54;4.50;99.90
21559;DHT22;10940;48.890;8.240;2024-02-28T06:58:20;4.50;99.90
21559;DHT22;10940;48.890;8.240;2024-02-28T07:00:47;4.50;99.90
21559;DHT22;10940;48.890;8.240;2024-02-28T07:03:13;4.50;99.90
21559;DHT22;10940;48.890;8.240;2024-02-28T07:05:39;4.50;99.90
21559;DHT22;10940;48.890;8.240;2024-02-28T07:08:04;4.40;99.90
21559;DHT22;10940;48.890;8.240;2024-02-28T07:10:30;4.40;99.90
21559;DHT22;10940;48.890;8.240;2024-02-28T07:12:55;4.40;99.90
21559;DHT22;10940;48.890;8.240;2024-02-28T07:15:21;4.40;99.90
21559;DHT22;10940;48.890;8.240;2024-02-28T07:17:47;4.40;99.90
21559;DHT22;10940;48.890;8.240;2024-02-28T07:20:13;4.40;99.90
21559;DHT22;10940;48.890;8.240;2024-02-28T07:22:38;4.40;99.90
21559;DHT22;10940;48.890;8.240;2024-02-28T07:25:05;4.40;99.90
21559;DHT22;10940;48.890;8.240;2024-02-28T07:27:32;4.50;99.90
21559;DHT22;10940;48.890;8.240;2024-02-28T07:29:58;4.60;99.90
21559;DHT22;10940;48.890;8.240;2024-02-28T07:32:23;4.60;99.90
21559;DHT22;10940;48.890;8.240;2024-02-28T07:34:49;4.70;99.90
21559;DHT22;10940;48.890;8.240;2024-02-28T07:37:14;4.80;99.90
21559;DHT22;10940;48.890;8.240;2024-02-28T07:39:40;4.80;99.90
21559;DHT22;10940;48.890;8.240;2024-02-28T07:42:06;4.90;99.90
21559;DHT22;10940;48.890;8.240;2024-02-28T07:44:31;5.00;99.90
21559;DHT22;10940;48.890;8.240;2024-02-28T07:46:58;5.00;99.90
21559;DHT22;10940;48.890;8.240;2024-02-28T07:49:24;5.20;99.90
21559;DHT22;10940;48.890;8.240;2024-02-28T07:51:50;5.20;99.90
21559;DHT22;10940;48.890;8.240;2024-02-28T07:54:16;5.30;99.90
21559;DHT22;10940;48.890;8.240;2024-02-28T07:56:41;5.40;99.90
21559;DHT22;10940;48.890;8.240;2024-02-28T07:59:07;5.60;99.90
21559;DHT22;10940;48.890;8.240;2024-02-28T08:01:33;5.60;99.90
21559;DHT22;10940;48.890;8.240;2024-02-28T08:03:59;5.70;99.90
21559;DHT22;10940;48.890;8.240;2024-02-28T08:06:25;5.70;99.90
21559;DHT22;10940;48.890;8.240;2024-02-28T08:08:50;5.70;99.90
21559;DHT22;10940;48.890;8.240;2024-02-28T08:11:16;5.80;99.90
21559;DHT22;10940;48.890;8.240;2024-02-28T08:13:42;5.80;99.90
21559;DHT22;10940;48.890;8.240;2024-02-28T08:16:09;5.90;99.90
21559;DHT22;10940;48.890;8.240;2024-02-28T08:18:35;5.90;99.90
21559;DHT22;10940;48.890;8.240;2024-02-28T08:21:01;6.00;99.90
21559;DHT22;10940;48.890;8.240;2024-02-28T08:23:29;6.00;99.90
21559;DHT22;10940;48.890;8.240;2024-02-28T08:25:54;6.10;99.90
21559;DHT22;10940;48.890;8.240;2024-02-28T08:28:21;6.10;99.90
21559;DHT22;10940;48.890;8.240;2024-02-28T08:30:47;6.00;99.90
21559;DHT22;10940;48.890;8.240;2024-02-28T08:33:13;6.10;99.90
21559;DHT22;10940;48.890;8.240;2024-02-28T08:35:39;6.10;99.90
21559;DHT22;10940;48.890;8.240;2024-02-28T08:38:04;6.10;99.90
21559;DHT22;10940;48.890;8.240;2024-02-28T08:40:30;6.20;99.90
21559;DHT22;10940;48.890;8.240;2024-02-28T08:42:55;6.20;99.90
21559;DHT22;10940;48.890;8.240;2024-02-28T08:45:25;6.30;99.90
21559;DHT22;10940;48.890;8.240;2024-02-28T08:47:50;6.40;99.90
21559;DHT22;10940;48.890;8.240;2024-02-28T08:50:16;6.50;99.90
21559;DHT22;10940;48.890;8.240;2024-02-28T08:52:42;6.60;99.90
21559;DHT22;10940;48.890;8.240;2024-02-28T08:55:07;6.70;99.90
21559;DHT22;10940;48.890;8.240;2024-02-28T08:57:33;6.70;99.90
21559;DHT22;10940;48.890;8.240;2024-02-28T08:59:59;6.80;99.90
21559;DHT22;10940;48.890;8.240;2024-02-28T09:02:25;6.90;99.90
21559;DHT22;10940;48.890;8.240;2024-02-28T09:04:51;7.00;99.90
21559;DHT22;10940;48.890;8.240;2024-02-28T09:07:18;7.20;99.90
21559;DHT22;10940;48.890;8.240;2024-02-28T09:09:47;7.30;99.90
21559;DHT22;10940;48.890;8.240;2024-02-28T09:12:13;7.40;99.90
21559;DHT22;10940;48.890;8.240;2024-02-28T09:14:39;7.40;99.90
21559;DHT22;10940;48.890;8.240;2024-02-28T09:17:04;7.60;99.90
21559;DHT22;10940;48.890;8.240;2024-02-28T09:19:31;7.70;99.90
21559;DHT22;10940;48.890;8.240;2024-02-28T09:21:56;7.70;99.90
21559;DHT22;10940;48.890;8.240;2024-02-28T09:24:23;7.70;99.90
21559;DHT22;10940;48.890;8.240;2024-02-28T09:26:49;7.80;99.90
21559;DHT22;10940;48.890;8.240;2024-02-28T09:29:14;7.80;99.90
21559;DHT22;10940;48.890;8.240;2024-02-28T09:31:40;7.90;99.90
21559;DHT22;10940;48.890;8.240;2024-02-28T09:34:05;7.90;99.90
21559;DHT22;10940;48.890;8.240;2024-02-28T09:36:43;8.00;99.90
21559;DHT22;10940;48.890;8.240;2024-02-28T09:39:11;8.00;99.90
21559;DHT22;10940;48.890;8.240;2024-02-28T09:41:38;8.00;99.90
21559;DHT22;10940;48.890;8.240;2024-02-28T09:44:06;8.10;99.90
21559;DHT22;10940;48.890;8.240;2024-02-28T09:46:33;8.10;99.90
21559;DHT22;10940;48.890;8.240;2024-02-28T09:49:04;8.20;99.90
21559;DHT22;10940;48.890;8.240;2024-02-28T09:51:34;8.30;99.90
21559;DHT22;10940;48.890;8.240;2024-02-28T09:54:04;8.40;99.90
21559;DHT22;10940;48.890;8.240;2024-02-28T09:56:31;8.40;99.90
21559;DHT22;10940;48.890;8.240;2024-02-28T09:58:57;8.50;99.90
21559;DHT22;10940;48.890;8.240;2024-02-28T10:01:23;8.60;99.90
21559;DHT22;10940;48.890;8.240;2024-02-28T10:03:51;8.60;99.90
21559;DHT22;10940;48.890;8.240;2024-02-28T10:06:20;8.70;99.90
21559;DHT22;10940;48.890;8.240;2024-02-28T10:08:46;8.80;99.90
21559;DHT22;10940;48.890;8.240;2024-02-28T10:11:20;8.90;99.90
21559;DHT22;10940;48.890;8.240;2024-02-28T10:13:47;9.00;99.90
21559;DHT22;10940;48.890;8.240;2024-02-28T10:16:13;9.10;99.90
21559;DHT22;10940;48.890;8.240;2024-02-28T10:18:44;9.20;99.90
21559;DHT22;10940;48.890;8.240;2024-02-28T10:21:10;9.20;99.90
21559;DHT22;10940;48.890;8.240;2024-02-28T10:23:37;9.20;99.90
21559;DHT22;10940;48.890;8.240;2024-02-28T10:26:03;9.30;99.90
21559;DHT22;10940;48.890;8.240;2024-02-28T10:28:29;9.40;99.90
21559;DHT22;10940;48.890;8.240;2024-02-28T10:30:55;9.50;99.90
21559;DHT22;10940;48.890;8.240;2024-02-28T10:33:20;9.50;99.90
21559;DHT22;10940;48.890;8.240;2024-02-28T10:35:50;9.60;99.90
21559;DHT22;10940;48.890;8.240;2024-02-28T10:38:17;9.70;99.90
21559;DHT22;10940;48.890;8.240;2024-02-28T10:40:43;9.70;99.90
21559;DHT22;10940;48.890;8.240;2024-02-28T10:43:09;9.80;99.90
21559;DHT22;10940;48.890;8.240;2024-02-28T10:45:36;9.80;99.90
21559;DHT22;10940;48.890;8.240;2024-02-28T10:48:06;9.80;99.90
21559;DHT22;10940;48.890;8.240;2024-02-28T10:50:32;9.90;99.90
21559;DHT22;10940;48.890;8.240;2024-02-28T10:53:01;9.90;99.90
21559;DHT22;10940;48.890;8.240;2024-02-28T10:55:32;9.90;99.90
21559;DHT22;10940;48.890;8.240;2024-02-28T10:58:07;10.00;99.90
21559;DHT22;10940;48.890;8.240;2024-02-28T11:00:34;10.00;99.90
21559;DHT22;10940;48.890;8.240;2024-02-28T11:03:01;9.90;99.90
21559;DHT22;10940;48.890;8.240;2024-02-28T11:05:40;9.90;99.90
21559;DHT22;10940;48.890;8.240;2024-02-28T11:08:10;10.00;99.90
21559;DHT22;10940;48.890;8.240;2024-02-28T11:10:40;10.10;99.90
21559;DHT22;10940;48.890;8.240;2024-02-28T11:13:07;10.20;99.90
21559;DHT22;10940;48.890;8.240;2024-02-28T11:15:34;10.30;99.90
21559;DHT22;10940;48.890;8.240;2024-02-28T11:18:08;10.30;99.90
21559;DHT22;10940;48.890;8.240;2024-02-28T11:20:35;10.40;99.90
21559;DHT22;10940;48.890;8.240;2024-02-28T11:23:01;10.40;99.90
21559;DHT22;10940;48.890;8.240;2024-02-28T11:25:26;10.40;99.90
21559;DHT22;10940;48.890;8.240;2024-02-28T11:27:52;10.40;99.90
21559;DHT22;10940;48.890;8.240;2024-02-28T11:30:18;10.40;99.90
21559;DHT22;10940;48.890;8.240;2024-02-28T11:32:43;10.40;99.90
21559;DHT22;10940;48.890;8.240;2024-02-28T11:35:10;10.50;99.90
21559;DHT22;10940;48.890;8.240;2024-02-28T11:37:38;10.50;99.90
21559;DHT22;10940;48.890;8.240;2024-02-28T11:40:07;10.50;99.90
21559;DHT22;10940;48.890;8.240;2024-02-28T11:42:34;10.50;99.90
21559;DHT22;10940;48.890;8.240;2024-02-28T11:45:00;10.50;99.90
21559;DHT22;10940;48.890;8.240;2024-02-28T11:47:28;10.50;99.90
21559;DHT22;10940;48.890;8.240;2024-02-28T11:49:58;10.60;99.90
21559;DHT22;10940;48.890;8.240;2024-02-28T11:52:25;10.60;99.90
21559;DHT22;10940;48.890;8.240;2024-02-28T11:54:51;10.60;99.90
21559;DHT22;10940;48.890;8.240;2024-02-28T11:57:16;10.60;99.90
21559;DHT22;10940;48.890;8.240;2024-02-28T11:59:44;10.70;99.90
21559;DHT22;10940;48.890;8.240;2024-02-28T12:02:14;10.80;99.90
21559;DHT22;10940;48.890;8.240;2024-02-28T12:04:41;11.00;99.90
21559;DHT22;10940;48.890;8.240;2024-02-28T12:07:08;11.10;99.90
21559;DHT22;10940;48.890;8.240;2024-02-28T12:09:34;11.00;99.90
21559;DHT22;10940;48.890;8.240;2024-02-28T12:12:03;11.00;99.90
21559;DHT22;10940;48.890;8.240;2024-02-28T12:14:31;11.10;99.90
21559;DHT22;10940;48.890;8.240;2024-02-28T12:16:58;11.20;99.90
21559;DHT22;10940;48.890;8.240;2024-02-28T12:19:24;11.10;99.90
21559;DHT22;10940;48.890;8.240;2024-02-28T12:21:50;11.20;99.90
21559;DHT22;10940;48.890;8.240;2024-02-28T12:24:15;11.10;99.90
21559;DHT22;10940;48.890;8.240;2024-02-28T12:26:41;11.10;99.90
21559;DHT22;10940;48.890;8.240;2024-02-28T12:29:07;11.10;99.90
21559;DHT22;10940;48.890;8.240;2024-02-28T12:31:32;11.20;99.90
21559;DHT22;10940;48.890;8.240;2024-02-28T12:33:58;11.30;99.90
21559;DHT22;10940;48.890;8.240;2024-02-28T12:36:24;11.40;99.90
21559;DHT22;10940;48.890;8.240;2024-02-28T12:38:50;11.50;99.90
21559;DHT22;10940;48.890;8.240;2024-02-28T12:41:16;11.50;99.90
21559;DHT22;10940;48.890;8.240;2024-02-28T12:43:42;11.70;99.90
21559;DHT22;10940;48.890;8.240;2024-02-28T12:46:08;11.80;99.90
21559;DHT22;10940;48.890;8.240;2024-02-28T12:48:38;11.90;99.90
21559;DHT22;10940;48.890;8.240;2024-02-28T12:51:04;12.00;99.90
21559;DHT22;10940;48.890;8.240;2024-02-28T12:53:31;12.20;99.90
21559;DHT22;10940;48.890;8.240;2024-02-28T12:55:57;12.30;99.90
21559;DHT22;10940;48.890;8.240;2024-02-28T12:58:22;12.50;99.90
21559;DHT22;10940;48.890;8.240;2024-02-28T13:00:49;12.60;99.90
21559;DHT22;10940;48.890;8.240;2024-02-28T13:03:15;12.60;99.90
21559;DHT22;10940;48.890;8.240;2024-02-28T13:05:42;12.40;99.90
21559;DHT22;10940;48.890;8.240;2024-02-28T13:08:07;12.30;99.90
21559;DHT22;10940;48.890;8.240;2024-02-28T13:10:33;12.10;99.90
21559;DHT22;10940;48.890;8.240;2024-02-28T13:13:04;12.10;99.90
21559;DHT22;10940;48.890;8.240;2024-02-28T13:15:29;12.20;99.90
21559;DHT22;10940;48.890;8.240;2024-02-28T13:17:55;12.30;99.90
21559;DHT22;10940;48.890;8.240;2024-02-28T13:20:20;12.60;99.90
21559;DHT22;10940;48.890;8.240;2024-02-28T13:22:47;12.60;99.90
21559;DHT22;10940;48.890;8.240;2024-02-28T13:25:12;12.40;99.90
21559;DHT22;10940;48.890;8.240;2024-02-28T13:27:39;12.30;99.90
21559;DHT22;10940;48.890;8.240;2024-02-28T13:30:06;12.30;99.90
21559;DHT22;10940;48.890;8.240;2024-02-28T13:32:32;12.20;99.90
21559;DHT22;10940;48.890;8.240;2024-02-28T13:34:58;12.20;99.90
21559;DHT22;10940;48.890;8.240;2024-02-28T13:37:25;12.20;99.90
21559;DHT22;10940;48.890;8.240;2024-02-28T13:39:50;12.10;99.90
21559;DHT22;10940;48.890;8.240;2024-02-28T13:42:17;12.20;99.90
21559;DHT22;10940;48.890;8.240;2024-02-28T13:44:45;12.30;99.90
21559;DHT22;10940;48.890;8.240;2024-02-28T13:47:12;12.30;99.90
21559;DHT22;10940;48.890;8.240;2024-02-28T13:49:39;12.40;99.90
21559;DHT22;10940;48.890;8.240;2024-02-28T13:52:05;12.40;99.90
21559;DHT22;10940;48.890;8.240;2024-02-28T13:54:30;12.40;99.90
21559;DHT22;10940;48.890;8.240;2024-02-28T13:56:56;12.40;99.90
21559;DHT22;10940;48.890;8.240;2024-02-28T13:59:22;12.40;99.90
21559;DHT22;10940;48.890;8.240;2024-02-28T14:01:49;12.40;99.90
21559;DHT22;10940;48.890;8.240;2024-02-28T14:04:15;12.30;99.90
21559;DHT22;10940;48.890;8.240;2024-02-28T14:06:41;12.20;99.90
21559;DHT22;10940;48.890;8.240;2024-02-28T14:09:06;12.30;99.90
21559;DHT22;10940;48.890;8.240;2024-02-28T14:11:32;12.30;99.90
21559;DHT22;10940;48.890;8.240;2024-02-28T14:13:58;12.30;99.90
21559;DHT22;10940;48.890;8.240;2024-02-28T14:16:24;12.40;99.90
21559;DHT22;10940;48.890;8.240;2024-02-28T14:18:50;12.40;99.90
21559;DHT22;10940;48.890;8.240;2024-02-28T14:21:16;12.40;99.90
21559;DHT22;10940;48.890;8.240;2024-02-28T14:23:42;12.40;99.90
21559;DHT22;10940;48.890;8.240;2024-02-28T14:26:08;12.50;99.90
21559;DHT22;10940;48.890;8.240;2024-02-28T14:28:33;12.40;99.90
21559;DHT22;10940;48.890;8.240;2024-02-28T14:30:59;12.30;99.90
21559;DHT22;10940;48.890;8.240;2024-02-28T14:33:25;12.20;99.90
21559;DHT22;10940;48.890;8.240;2024-02-28T14:35:50;12.10;99.90
21559;DHT22;10940;48.890;8.240;2024-02-28T14:38:17;12.00;99.90
21559;DHT22;10940;48.890;8.240;2024-02-28T14:40:42;12.20;99.90
21559;DHT22;10940;48.890;8.240;2024-02-28T14:43:08;12.30;99.90
21559;DHT22;10940;48.890;8.240;2024-02-28T14:45:34;12.30;99.90
21559;DHT22;10940;48.890;8.240;2024-02-28T14:48:00;12.20;99.90
21559;DHT22;10940;48.890;8.240;2024-02-28T14:50:26;12.20;99.90
21559;DHT22;10940;48.890;8.240;2024-02-28T14:52:51;12.00;99.90
21559;DHT22;10940;48.890;8.240;2024-02-28T14:55:17;11.80;99.90
21559;DHT22;10940;48.890;8.240;2024-02-28T14:57:43;11.70;99.90
21559;DHT22;10940;48.890;8.240;2024-02-28T15:00:12;11.60;99.90
21559;DHT22;10940;48.890;8.240;2024-02-28T15:02:40;11.50;99.90
21559;DHT22;10940;48.890;8.240;2024-02-28T15:05:07;11.50;99.90
21559;DHT22;10940;48.890;8.240;2024-02-28T15:07:33;11.50;99.90
21559;DHT22;10940;48.890;8.240;2024-02-28T15:09:59;11.50;99.90
21559;DHT22;10940;48.890;8.240;2024-02-28T15:12:27;11.40;99.90
21559;DHT22;10940;48.890;8.240;2024-02-28T15:14:52;11.50;99.90
21559;DHT22;10940;48.890;8.240;2024-02-28T15:17:20;11.40;99.90
21559;DHT22;10940;48.890;8.240;2024-02-28T15:19:45;11.30;99.90
21559;DHT22;10940;48.890;8.240;2024-02-28T15:22:11;11.30;99.90
21559;DHT22;10940;48.890;8.240;2024-02-28T15:24:36;11.20;99.90
21559;DHT22;10940;48.890;8.240;2024-02-28T15:27:03;11.10;99.90
21559;DHT22;10940;48.890;8.240;2024-02-28T15:29:29;11.00;99.90
21559;DHT22;10940;48.890;8.240;2024-02-28T15:31:55;10.90;99.90
21559;DHT22;10940;48.890;8.240;2024-02-28T15:34:20;10.90;99.90
21559;DHT22;10940;48.890;8.240;2024-02-28T15:36:46;10.90;99.90